Date,TemperatureHighF,TemperatureAvgF,TemperatureLowF,DewpointHighF,DewpointAvgF,DewpointLowF,HumidityHigh,HumidityAvg,HumidityLow,PressureMaxIn,PressureMinIn,WindSpeedMaxMPH,WindSpeedAvgMPH,GustSpeedMaxMPH,PrecipitationSumIn
2013-1-1,49.9,45.2,39.5,49.4,42.6,33.0,100,91,70,30.04,29.86,4,0,7,0.25
2013-1-2,49.1,45.5,40.1,48.6,42.9,38.4,98,91,72,30.12,29.84,9,0,9,0.20
2013-1-3,46.0,40.4,29.5,39.5,36.9,27.4,96,88,69,30.20,30.07,4,0,4,0.00
2013-1-4,51.0,37.4,24.5,33.6,26.6,23.0,96,69,38,30.26,30.13,14,1,14,0.00
2013-1-5,49.4,35.9,25.2,35.0,27.8,22.3,93,74,43,30.34,30.18,6,0,6,0.00
2013-1-6,50.6,41.9,33.6,41.7,37.7,31.8,96,86,66,30.19,29.99,4,0,4,0.00
2013-1-7,52.2,37.8,28.1,37.0,31.6,26.9,97,81,51,30.37,30.12,12,0,12,0.00
2013-1-8,55.6,40.7,27.0,44.4,36.1,25.5,97,85,56,30.40,30.30,5,0,5,0.00
2013-1-9,67.7,49.3,33.8,54.3,44.4,32.4,100,85,58,30.38,30.28,6,0,6,0.00
2013-1-10,63.1,51.7,44.3,50.6,46.0,42.5,98,83,53,30.46,30.34,4,0,7,0.00
2013-1-11,49.4,46.7,41.9,48.6,44.5,39.1,98,92,68,30.36,30.08,4,0,4,0.19
2013-1-12,73.3,57.0,48.8,65.8,55.3,48.3,100,94,75,30.10,30.02,7,0,7,0.00
2013-1-13,74.7,60.0,50.3,64.1,56.6,49.8,100,90,65,30.07,29.97,12,0,12,0.01
2013-1-14,68.9,61.7,55.5,65.5,59.9,54.3,99,94,84,30.07,30.00,5,0,5,0.00
2013-1-15,60.8,47.4,44.8,60.2,46.3,43.7,98,96,91,30.16,29.98,12,1,12,0.01
2013-1-16,49.3,46.0,43.3,48.8,45.5,42.5,98,98,97,30.01,29.91,6,0,6,0.19
2013-1-17,50.4,46.7,33.9,49.9,45.9,32.6,98,97,93,30.09,29.79,15,1,15,0.73
2013-1-18,46.2,37.1,28.9,33.8,31.1,26.9,100,81,50,30.47,30.07,9,1,9,0.37
2013-1-19,54.5,35.6,23.5,35.9,29.0,22.0,97,80,44,30.44,30.11,2,0,7,0.10
2013-1-20,64.5,49.9,31.5,40.5,35.9,29.7,96,62,36,30.09,29.92,15,1,15,0.01
2013-1-21,60.4,43.0,27.6,37.0,30.8,22.4,97,66,37,30.02,29.80,10,0,10,0.00
2013-1-22,39.7,33.2,24.9,27.1,12.9,3.8,72,45,22,30.22,29.89,13,1,13,0.00
2013-1-23,41.6,28.1,16.9,20.9,15.1,8.1,87,61,35,30.32,29.99,12,0,12,0.00
2013-1-24,39.0,31.3,24.6,26.9,15.8,5.5,87,56,30,30.45,29.90,15,1,15,0.00
2013-1-25,27.9,25.0,20.1,26.6,17.2,7.5,100,74,46,30.47,30.06,5,0,5,0.00
2013-1-26,41.4,31.6,26.6,35.8,29.2,24.8,96,91,75,30.35,30.04,4,0,4,0.23
2013-1-27,42.2,31.5,22.0,30.2,26.9,20.3,96,84,58,30.54,30.34,6,0,6,0.06
2013-1-28,51.4,41.1,31.8,48.9,37.0,29.1,95,86,67,30.45,30.16,14,0,14,0.05
2013-1-29,73.3,55.4,41.2,60.0,50.9,40.3,98,86,62,30.17,29.99,15,1,15,0.00
2013-1-30,72.8,65.5,52.1,65.7,61.7,50.7,99,88,76,30.00,29.32,23,2,23,0.26
2013-1-31,60.9,46.4,29.3,58.0,32.7,23.4,93,61,37,29.95,29.39,22,4,23,0.10
2013-2-1,39.6,34.3,25.5,30.0,16.8,7.1,88,52,27,30.32,29.82,20,2,20,0.00
2013-2-2,45.9,32.7,17.6,37.7,18.2,10.0,90,58,31,30.35,29.97,12,1,12,0.00
2013-2-3,50.9,41.2,28.9,37.7,31.4,24.5,95,70,44,29.97,29.78,14,1,14,0.00
2013-2-4,49.1,36.2,24.8,30.7,26.1,22.3,93,69,40,30.09,29.92,9,0,9,0.00
2013-2-5,62.4,44.9,31.8,39.4,34.5,27.7,92,70,39,29.95,29.81,11,1,11,0.00
2013-2-6,63.9,43.9,28.9,40.1,31.1,25.1,97,67,23,30.21,29.90,11,1,11,0.00
2013-2-7,46.7,39.3,33.7,42.3,36.3,28.8,96,89,73,30.26,29.91,7,1,9,0.36
2013-2-8,56.0,45.9,39.5,47.6,40.9,30.4,97,84,59,30.00,29.75,12,2,12,0.51
2013-2-9,53.9,38.4,26.5,31.4,26.1,21.3,94,66,29,30.30,29.99,13,1,13,0.00
2013-2-10,54.8,38.4,23.9,41.4,28.2,21.8,96,71,33,30.43,30.13,9,0,9,0.04
2013-2-11,62.5,55.0,43.3,60.2,53.5,41.4,99,95,90,30.15,29.84,12,1,12,0.10
2013-2-12,60.8,52.5,46.1,54.4,40.1,29.9,96,66,32,30.01,29.82,11,1,11,0.00
2013-2-13,47.4,45.6,42.7,46.6,44.1,38.2,97,94,81,29.88,29.55,12,0,12,0.10
2013-2-14,52.8,39.9,29.2,39.2,33.7,27.6,97,80,50,30.00,29.77,7,0,7,0.00
2013-2-15,63.1,42.8,27.5,42.4,33.8,26.0,98,75,35,30.03,29.85,11,0,11,0.00
2013-2-16,44.9,37.1,31.0,37.7,33.2,26.1,95,86,71,29.90,29.76,9,0,9,0.34
2013-2-17,39.0,30.3,21.6,26.2,17.3,11.1,85,61,32,30.23,29.86,18,2,18,0.02
2013-2-18,53.8,33.8,16.8,29.0,21.6,14.4,95,65,32,30.35,30.19,5,0,9,0.00
2013-2-19,50.1,39.8,28.2,49.5,37.4,25.1,98,91,71,30.19,29.79,11,1,11,0.22
2013-2-20,54.1,39.0,26.6,33.9,25.6,18.6,95,64,26,30.07,29.90,16,1,16,0.00
2013-2-21,56.5,39.4,23.5,32.1,24.1,20.3,91,59,26,30.18,30.05,10,1,10,0.00
2013-2-22,43.8,37.1,34.0,35.5,34.1,25.9,96,90,51,30.28,30.05,4,0,5,0.47
2013-2-23,43.2,40.1,36.3,42.4,39.3,35.3,98,97,96,30.05,29.75,4,0,4,0.73
2013-2-24,63.1,48.8,36.4,46.5,41.0,32.3,98,79,33,29.97,29.73,12,1,12,0.06
2013-2-25,42.1,37.3,31.9,33.5,27.6,23.6,92,69,53,30.16,29.97,14,1,14,0.00
2013-2-26,56.4,44.7,35.1,55.8,41.8,27.2,98,90,65,30.07,29.48,17,1,17,0.88
2013-2-27,60.7,49.0,36.3,43.8,40.8,34.5,97,76,50,29.72,29.55,13,1,13,0.00
2013-2-28,51.2,40.6,31.1,41.0,32.3,27.5,98,75,43,29.79,29.63,16,1,16,0.00
2013-3-1,48.9,38.6,26.5,34.8,29.7,24.7,95,72,48,29.85,29.77,9,1,11,0.00
2013-3-2,47.9,37.9,28.3,32.1,27.8,21.6,95,69,47,29.86,29.74,10,1,10,0.00
2013-3-3,47.0,35.9,25.6,26.5,22.1,19.6,85,58,41,29.92,29.78,14,1,14,0.00
2013-3-4,52.3,35.2,20.9,26.1,20.5,17.1,90,60,27,30.06,29.92,14,1,14,0.00
2013-3-5,47.5,40.8,30.9,44.5,36.4,26.1,97,85,57,30.01,29.48,5,0,5,0.30
2013-3-6,47.7,42.8,37.4,46.2,33.7,27.9,98,72,52,29.97,29.44,28,3,28,0.06
2013-3-7,53.4,42.6,31.5,34.0,30.8,27.1,87,64,46,30.17,29.96,14,1,14,0.00
2013-3-8,56.9,44.2,31.9,31.4,27.9,25.9,79,55,32,30.22,30.08,15,2,15,0.00
2013-3-9,63.8,45.8,29.0,37.2,31.3,25.6,89,61,30,30.27,30.15,10,1,10,0.00
2013-3-10,67.8,47.5,29.2,37.9,32.5,27.4,96,63,24,30.26,30.13,10,0,10,0.00
2013-3-11,68.3,52.5,34.7,54.7,44.6,30.3,95,76,57,30.17,29.86,9,1,13,0.00
2013-3-12,70.3,61.5,50.6,62.7,53.8,34.3,98,78,48,29.87,29.67,14,1,14,0.81
2013-3-13,58.4,47.3,32.5,35.6,29.3,21.9,94,52,30,30.07,29.87,17,2,17,0.00
2013-3-14,54.9,40.2,27.3,26.5,22.5,18.6,78,52,29,30.18,30.04,13,1,13,0.00
2013-3-15,63.1,43.9,24.1,38.4,30.3,21.4,93,63,35,30.12,29.82,13,1,13,0.00
2013-3-16,79.0,59.4,41.6,52.5,46.0,36.6,92,65,37,29.83,29.58,15,1,15,0.00
2013-3-17,60.4,51.8,42.4,53.0,46.5,39.3,94,83,66,30.09,29.75,13,2,13,0.00
2013-3-18,43.3,40.9,38.7,41.7,39.5,37.4,99,95,90,30.12,29.76,9,1,9,0.50
2013-3-19,67.8,52.5,41.1,48.1,36.6,17.7,98,64,22,29.95,29.74,17,2,17,0.01
2013-3-20,57.9,46.5,33.0,30.2,22.4,12.1,85,42,22,30.05,29.70,12,1,12,0.00
2013-3-21,47.8,40.3,31.9,33.1,21.7,13.2,85,49,30,29.92,29.66,15,2,15,0.00
2013-3-22,54.6,38.1,22.0,29.8,19.1,13.6,80,49,26,30.02,29.90,14,1,14,0.00
2013-3-23,55.9,43.5,34.3,35.1,30.3,24.4,87,62,37,29.99,29.83,6,0,6,0.00
2013-3-24,40.8,38.1,31.9,38.8,36.0,29.4,96,92,80,29.87,29.50,14,1,14,0.71
2013-3-25,37.7,37.1,36.9,36.6,35.8,35.3,96,95,93,29.54,29.49,4,0,5,0.01
2013-3-26,49.0,41.5,29.3,31.7,28.9,25.9,88,62,49,30.04,29.75,3,1,14,0.00
2013-3-27,52.6,41.3,30.3,29.2,25.8,23.3,84,56,34,30.17,30.05,12,1,23,0.00
2013-3-28,57.8,42.9,29.3,30.8,26.9,23.9,80,56,31,30.23,30.08,20,1,20,0.00
2013-3-29,61.1,44.3,26.9,35.0,29.0,24.1,93,60,28,30.27,30.10,13,1,13,0.00
2013-3-30,67.3,52.0,37.9,47.3,39.5,33.3,90,66,37,30.17,30.00,10,0,10,0.00
2013-3-31,68.6,56.1,46.5,62.4,52.3,42.9,98,88,68,30.03,29.73,14,1,14,0.58
2013-4-1,73.4,60.5,50.5,55.4,48.4,40.2,98,70,34,29.88,29.73,16,1,16,0.02
2013-4-2,62.6,49.6,34.1,40.7,33.5,28.6,94,57,28,30.09,29.88,13,1,13,0.00
2013-4-3,62.6,50.7,41.4,36.5,27.5,20.8,79,43,24,30.22,30.06,12,1,12,0.00
2013-4-4,45.9,42.2,39.3,41.4,35.0,26.0,95,77,51,30.28,29.85,13,1,13,0.87
2013-4-5,65.7,48.6,39.2,51.5,43.7,37.9,97,85,50,29.94,29.81,9,1,9,0.02
2013-4-6,66.5,52.2,36.6,44.2,36.5,29.7,96,60,31,30.19,29.94,11,1,11,0.00
2013-4-7,74.0,55.6,35.3,50.1,42.5,33.2,96,65,35,30.21,30.03,11,1,11,0.00
2013-4-8,81.4,63.0,46.6,59.2,52.7,45.2,98,73,42,30.10,29.97,14,1,14,0.00
2013-4-9,86.8,69.7,52.5,62.5,57.8,51.0,98,69,40,30.10,29.97,12,1,12,0.00
2013-4-10,89.0,72.0,56.6,64.9,60.1,54.6,98,70,40,30.02,29.85,14,1,14,0.00
2013-4-11,82.3,71.3,60.9,67.2,62.4,57.6,95,75,51,29.91,29.70,13,1,13,0.00
2013-4-12,83.2,72.0,62.2,71.3,64.8,48.6,98,80,50,29.73,29.51,23,2,23,0.77
2013-4-13,77.8,63.3,50.2,51.6,45.4,39.8,88,55,29,29.92,29.68,14,1,14,0.00
2013-4-14,81.4,62.9,42.4,55.1,47.0,40.4,97,62,27,30.02,29.92,9,0,9,0.00
2013-4-15,71.3,64.7,58.5,62.0,58.4,55.0,97,81,64,30.12,29.91,7,0,7,0.04
2013-4-16,78.8,66.6,58.5,63.7,60.1,56.2,95,81,55,30.22,30.11,8,0,8,0.00
2013-4-17,83.2,65.6,54.3,69.3,60.9,53.4,98,86,58,30.15,30.02,9,0,9,0.00
2013-4-18,80.7,69.6,57.8,65.4,61.8,56.4,98,78,55,30.12,29.95,9,0,9,0.00
2013-4-19,83.7,70.9,64.9,70.2,66.1,62.6,98,86,61,29.96,29.63,27,1,27,0.58
2013-4-20,66.1,55.4,43.5,63.9,44.6,35.2,97,70,35,30.20,29.73,14,0,14,0.05
2013-4-21,63.7,51.6,38.9,46.0,41.4,37.0,95,70,47,30.41,30.20,5,0,5,0.01
2013-4-22,63.7,52.0,38.9,46.2,40.3,34.1,88,66,45,30.40,30.18,3,1,15,0.00
2013-4-23,70.5,55.0,47.8,54.4,48.4,44.9,92,80,53,30.20,30.04,2,0,9,0.02
2013-4-24,76.9,60.7,43.9,60.5,53.1,42.6,98,79,53,30.08,29.89,11,1,11,0.00
2013-4-25,76.1,61.5,46.8,56.3,48.9,42.8,95,66,36,30.19,29.93,8,0,8,0.00
2013-4-26,76.0,58.1,41.4,52.6,43.9,37.5,97,66,28,30.35,30.19,10,0,10,0.00
2013-4-27,75.9,61.3,49.5,57.5,50.5,45.5,92,71,35,30.31,30.18,10,0,10,0.00
2013-4-28,61.0,56.8,53.5,57.2,54.2,51.3,97,91,76,30.19,30.02,5,0,5,0.91
2013-4-29,72.8,62.5,56.3,66.3,60.4,55.6,99,93,75,30.03,29.88,6,0,6,0.48
2013-4-30,66.0,61.3,59.9,60.9,59.7,58.9,98,94,83,30.05,29.91,8,0,8,0.00
2013-5-1,61.6,59.1,56.7,58.7,57.0,55.0,96,93,88,30.23,30.08,3,1,11,0.00
2013-5-2,63.7,60.2,54.8,59.0,56.9,52.7,96,89,83,30.24,30.17,10,1,10,0.00
2013-5-3,69.2,59.3,49.7,57.8,52.2,45.2,96,79,59,30.18,30.07,10,1,10,0.00
2013-5-4,66.0,56.8,50.4,54.6,49.9,45.3,90,78,62,30.13,29.98,12,2,12,0.00
2013-5-5,59.4,55.8,51.0,56.8,52.2,47.3,93,88,80,30.01,29.88,12,1,12,0.01
2013-5-6,67.0,60.5,56.7,63.7,59.1,55.1,100,95,88,29.91,29.74,9,0,9,1.06
2013-5-7,72.3,58.5,49.6,60.0,53.4,48.5,99,85,48,29.87,29.77,10,1,10,0.01
2013-5-8,72.6,61.4,53.0,64.9,57.2,51.5,98,87,60,29.93,29.84,11,0,11,0.15
2013-5-9,82.4,66.9,53.1,65.4,59.3,51.9,98,80,47,29.98,29.90,9,0,9,0.00
2013-5-10,87.0,70.3,54.3,69.1,61.2,53.1,100,77,42,29.98,29.86,13,1,13,0.00
2013-5-11,82.7,72.1,66.1,69.1,64.8,60.0,95,79,55,29.88,29.70,14,1,14,0.04
2013-5-12,75.3,66.6,55.3,64.8,53.6,40.5,95,66,38,29.95,29.70,13,1,13,0.00
2013-5-13,68.5,56.6,43.9,47.8,41.7,35.9,93,61,33,30.11,29.94,12,1,12,0.00
2013-5-14,74.1,57.2,38.4,49.6,42.9,36.3,97,64,33,30.19,30.00,10,1,10,0.00
2013-5-15,89.1,67.8,47.8,68.3,57.4,45.6,98,72,45,30.00,29.82,10,1,10,0.00
2013-5-16,86.5,72.9,60.8,69.6,63.9,58.9,97,76,47,29.90,29.82,10,0,10,0.00
2013-5-17,91.8,74.8,60.4,70.3,64.6,58.8,98,74,40,30.00,29.90,7,0,7,0.00
2013-5-18,79.8,69.1,60.0,70.4,65.2,58.7,98,88,67,30.07,29.98,12,0,12,0.23
2013-5-19,80.0,69.5,64.8,71.8,67.3,63.9,99,93,71,30.07,29.96,10,0,10,0.87
2013-5-20,74.9,69.5,67.0,72.9,68.5,66.4,99,97,89,30.03,29.94,6,0,6,0.32
2013-5-21,83.9,72.9,67.7,76.7,70.2,66.7,99,92,71,29.97,29.86,9,0,9,0.04
2013-5-22,83.4,73.3,67.9,73.7,69.1,66.1,98,88,65,29.95,29.82,11,0,11,0.00
2013-5-23,81.6,72.6,67.4,72.3,68.9,65.7,98,89,70,29.87,29.73,8,0,8,0.17
2013-5-24,71.3,65.3,55.6,65.7,55.5,41.7,96,73,42,30.10,29.73,21,1,21,0.01
2013-5-25,76.0,59.2,41.8,58.1,45.8,38.8,96,66,32,30.20,30.06,17,1,17,0.00
2013-5-26,76.0,60.9,49.2,60.0,50.8,44.4,92,72,44,30.20,30.09,9,0,9,0.00
2013-5-27,83.5,65.4,48.5,63.1,55.0,46.9,98,73,38,30.21,30.07,6,0,6,0.00
2013-5-28,85.3,71.5,57.9,70.7,63.7,55.6,98,78,57,30.17,30.06,7,1,9,0.00
2013-5-29,86.0,73.5,59.8,70.2,65.1,58.1,98,77,54,30.16,30.07,11,1,11,0.00
2013-5-30,88.8,73.8,60.4,71.3,65.6,59.0,98,78,46,30.20,30.08,10,0,10,0.00
2013-5-31,88.2,74.9,62.9,73.6,67.7,61.5,98,80,53,30.15,30.01,11,0,11,0.00
2013-6-1,89.0,76.2,64.9,72.8,68.3,63.4,98,79,52,30.06,29.93,11,1,11,0.00
2013-6-2,87.3,76.3,66.7,75.2,69.2,64.6,96,80,58,29.98,29.81,11,1,11,0.10
2013-6-3,82.5,73.4,66.1,75.1,70.5,64.9,98,91,71,29.88,29.74,8,0,8,0.33
2013-6-4,80.2,71.2,64.6,69.9,66.3,62.8,99,85,65,30.01,29.84,12,0,12,0.01
2013-6-5,81.2,71.4,63.6,69.1,64.4,60.7,97,80,57,30.06,29.93,9,0,9,0.00
2013-6-6,74.4,70.9,65.4,73.1,68.2,61.2,97,91,72,29.95,29.74,8,0,8,0.29
2013-6-7,73.0,70.1,68.8,71.3,69.4,68.0,99,98,93,29.77,29.44,8,1,11,1.89
2013-6-8,83.3,72.9,66.9,74.5,69.5,65.7,99,90,69,30.01,29.74,8,0,8,0.05
2013-6-9,88.0,76.0,65.0,78.3,70.8,64.1,99,85,61,30.08,29.97,6,0,6,0.00
2013-6-10,83.7,74.8,72.0,77.9,72.8,69.9,99,94,75,30.02,29.81,16,1,16,0.90
2013-6-11,85.6,76.0,67.9,72.8,69.4,66.1,95,81,57,29.87,29.81,13,1,13,0.00
2013-6-12,90.8,77.0,63.5,79.6,71.3,62.3,98,84,60,29.90,29.77,9,0,9,0.00
2013-6-13,94.5,78.4,67.8,79.4,72.6,66.3,99,84,54,29.78,29.52,21,1,21,0.11
2013-6-14,81.3,71.1,62.1,67.0,62.6,58.6,96,76,51,29.93,29.64,10,1,10,0.00
2013-6-15,86.7,71.5,57.3,70.9,63.1,55.9,98,77,49,30.05,29.93,9,0,9,0.00
2013-6-16,87.2,74.1,60.5,73.9,66.8,58.3,94,79,59,30.05,29.92,11,1,11,0.00
2013-6-17,87.0,75.7,68.9,76.7,70.6,65.9,94,85,67,29.95,29.84,7,0,7,0.00
2013-6-18,84.3,74.2,69.4,76.4,70.9,67.9,97,90,70,29.89,29.67,14,1,14,0.50
2013-6-19,81.0,73.0,64.8,71.7,68.2,63.6,99,86,66,30.04,29.79,8,0,8,0.00
2013-6-20,83.4,72.7,63.8,70.0,65.5,62.6,98,80,53,30.16,30.03,7,0,7,0.00
2013-6-21,84.6,71.1,56.7,69.4,61.2,55.0,97,74,43,30.18,30.10,11,0,11,0.00
2013-6-22,80.3,72.6,65.0,74.3,69.9,63.1,97,91,76,30.12,30.02,11,0,11,0.05
2013-6-23,85.6,75.5,68.0,76.5,72.2,66.9,99,90,67,30.13,30.04,4,0,4,0.02
2013-6-24,86.1,76.4,69.3,78.6,72.9,68.1,99,89,75,30.13,30.00,9,0,9,0.05
2013-6-25,90.5,76.0,67.9,78.8,71.7,66.5,99,87,64,30.05,29.92,10,1,11,0.00
2013-6-26,90.2,76.5,68.9,79.0,72.3,68.0,98,88,65,29.95,29.81,9,1,9,0.32
2013-6-27,88.9,76.9,67.5,79.1,73.0,66.5,99,89,68,29.86,29.63,11,1,11,0.01
2013-6-28,91.1,78.5,71.0,78.2,73.5,69.9,98,86,60,29.67,29.49,12,1,14,1.01
2013-6-29,84.9,75.4,69.2,77.9,72.7,68.5,99,92,73,29.64,29.52,6,0,6,0.37
2013-6-30,85.4,74.3,69.3,78.8,72.5,68.4,99,95,76,29.78,29.62,11,0,11,4.06
2013-7-1,82.8,74.0,69.4,77.2,72.3,69.0,100,95,79,29.91,29.75,9,0,9,0.71
2013-7-2,75.0,73.3,72.3,73.9,72.5,71.1,99,97,96,30.10,29.90,6,0,6,0.25
2013-7-3,84.1,75.9,72.0,78.4,74.5,70.3,100,96,79,30.17,30.06,6,0,6,0.85
2013-7-4,88.3,79.0,71.8,79.6,74.7,71.2,100,88,67,30.19,30.08,10,0,10,0.01
2013-7-5,90.3,79.2,70.8,78.9,74.5,69.9,99,86,64,30.19,30.07,7,0,7,0.00
2013-7-6,88.2,78.9,72.8,80.5,74.8,71.6,98,88,68,30.17,30.02,7,0,7,0.06
2013-7-7,87.8,81.4,67.2,79.5,75.9,66.3,99,84,71,30.10,29.97,7,0,7,0.00
2013-7-8,89.9,78.7,72.4,78.8,74.1,70.5,98,86,63,30.09,30.00,7,0,7,0.00
2013-7-9,86.0,76.9,71.1,79.8,73.9,69.7,99,91,74,30.08,29.97,7,0,7,0.00
2013-7-10,89.3,78.3,71.6,79.4,74.6,70.2,99,89,70,30.03,29.86,11,1,11,0.07
2013-7-11,80.4,75.2,72.5,76.5,73.5,71.6,99,95,84,29.89,29.80,7,0,9,0.18
2013-7-12,77.3,73.3,70.8,74.5,71.6,69.3,99,95,86,29.94,29.78,8,0,8,0.03
2013-7-13,77.3,73.5,70.5,76.4,72.3,69.0,98,96,92,30.09,29.93,10,0,10,0.15
2013-7-14,88.5,77.0,70.9,78.7,73.8,70.3,99,91,63,30.21,30.08,12,0,12,0.31
2013-7-15,89.7,78.1,68.8,79.8,73.9,68.2,100,88,61,30.24,30.16,5,0,5,0.00
2013-7-16,93.9,80.6,68.2,81.8,74.3,67.3,99,83,59,30.20,30.09,5,0,5,0.00
2013-7-17,92.5,80.4,74.6,80.6,76.0,73.2,98,88,58,30.14,30.07,6,0,6,0.00
2013-7-18,94.5,84.6,73.7,83.1,78.0,72.9,99,82,60,30.05,29.94,9,0,9,0.00
2013-7-19,91.3,80.9,73.5,80.2,76.0,72.5,99,86,64,30.02,29.89,10,1,10,0.00
2013-7-20,90.2,78.9,73.4,79.9,75.1,72.0,97,89,67,29.95,29.83,12,1,12,0.20
2013-7-21,88.3,77.3,72.0,80.4,74.4,71.1,99,91,70,29.91,29.81,9,0,9,0.03
2013-7-22,88.3,77.9,71.3,78.8,74.1,70.4,99,89,67,29.87,29.74,8,1,8,0.00
2013-7-23,90.2,80.3,72.9,79.4,75.0,71.7,97,85,66,29.77,29.64,2,1,9,0.00
2013-7-24,92.8,78.2,70.5,80.1,72.6,69.3,98,84,56,29.76,29.65,2,0,9,0.00
2013-7-25,81.7,73.9,67.9,73.0,69.5,66.1,95,86,71,29.95,29.73,7,0,7,0.00
2013-7-26,86.5,74.0,62.2,73.2,67.2,61.0,99,81,55,30.03,29.93,6,0,6,0.00
2013-7-27,86.5,72.5,65.2,75.5,69.1,64.0,99,90,64,29.97,29.85,9,0,9,0.36
2013-7-28,86.3,75.5,67.7,77.3,71.7,67.1,99,89,62,29.92,29.84,6,0,6,0.04
2013-7-29,87.1,76.0,67.8,74.4,69.7,66.0,99,83,56,30.07,29.91,7,0,7,0.01
2013-7-30,89.2,74.4,61.1,76.1,66.4,59.8,98,79,51,30.14,30.05,6,0,6,0.00
2013-7-31,83.0,77.6,70.1,76.7,73.6,68.9,99,88,75,30.06,29.91,18,0,18,0.29
2013-8-1,82.5,74.4,70.4,77.2,72.5,69.2,99,94,80,29.93,29.78,6,0,6,0.26
2013-8-2,88.4,77.2,66.8,78.0,72.2,65.9,99,86,62,29.93,29.82,5,0,5,0.01
2013-8-3,89.8,77.8,70.3,79.5,74.0,69.1,99,89,65,29.93,29.82,10,0,10,0.08
2013-8-4,85.8,75.7,66.6,74.1,70.2,64.7,99,85,58,29.94,29.80,9,0,9,0.01
2013-8-5,83.9,73.0,63.3,73.5,67.1,62.2,99,84,56,30.01,29.91,7,0,7,0.00
2013-8-6,81.0,72.8,66.7,73.0,68.7,65.8,98,88,69,29.98,29.91,9,0,9,0.26
2013-8-7,84.3,74.8,68.1,75.7,71.2,66.9,98,89,69,30.02,29.93,7,0,7,0.00
2013-8-8,86.8,76.7,68.8,78.3,73.0,68.5,99,89,66,29.99,29.90,6,0,6,0.00
2013-8-9,89.3,78.5,71.0,79.4,74.7,70.4,99,89,69,29.97,29.89,10,1,10,0.00
2013-8-10,91.8,78.1,72.5,80.7,74.7,71.6,99,90,65,30.02,29.92,12,1,12,0.02
2013-8-11,90.8,78.5,70.0,80.2,74.8,69.6,99,89,63,30.03,29.91,6,0,7,0.00
2013-8-12,90.0,79.6,71.5,79.5,74.7,71.2,99,86,58,29.97,29.84,8,0,8,0.00
2013-8-13,87.6,76.7,69.4,80.8,74.2,69.1,99,93,72,29.88,29.69,10,0,10,0.33
2013-8-14,75.0,70.3,61.6,72.9,68.1,60.3,99,93,78,30.01,29.74,7,0,9,0.00
2013-8-15,76.0,65.0,58.5,65.5,60.6,57.6,98,87,59,30.09,29.99,8,0,8,0.00
2013-8-16,69.1,63.5,57.8,65.5,61.4,57.2,99,93,82,30.10,30.01,5,0,5,0.00
2013-8-17,70.7,66.5,61.1,70.4,65.5,60.4,99,97,91,30.10,30.03,5,0,5,0.23
2013-8-18,79.7,72.1,68.0,73.5,69.7,66.2,99,93,77,30.12,30.03,11,0,11,0.02
2013-8-19,73.0,69.4,66.7,72.1,68.7,65.8,99,98,94,30.11,30.01,4,0,4,0.16
2013-8-20,69.8,69.8,69.8,69.5,69.5,69.5,99,99,99,30.12,30.03,0,0,0,0.00
2013-8-21,85.7,73.1,69.0,77.5,71.2,68.7,99,95,69,30.16,30.01,13,0,13,0.20
2013-8-22,86.5,76.5,69.3,77.2,73.0,69.0,100,90,65,30.07,29.91,7,0,7,0.00
2013-8-23,86.5,75.6,66.8,77.1,71.8,66.3,99,89,66,29.99,29.84,9,0,9,0.00
2013-8-24,81.8,71.3,62.2,67.1,64.1,61.1,97,80,51,30.22,29.99,11,1,11,0.00
2013-8-25,79.0,67.0,57.1,66.3,61.1,56.5,98,84,53,30.31,30.20,11,1,11,0.00
2013-8-26,81.8,65.9,52.6,66.0,59.4,51.8,98,83,45,30.24,30.04,6,0,6,0.00
2013-8-27,87.0,72.0,59.1,77.0,67.8,58.3,98,88,63,30.06,29.88,5,0,5,0.00
2013-8-28,82.5,74.6,66.6,78.4,72.9,66.0,99,95,79,29.90,29.79,4,0,4,0.00
2013-8-29,86.2,78.2,71.3,76.7,73.6,69.8,98,87,69,29.93,29.76,9,1,9,0.00
2013-8-30,87.0,73.7,64.8,72.2,67.9,64.1,99,84,51,29.98,29.85,5,0,5,0.00
2013-8-31,87.7,74.5,64.2,76.0,70.4,63.6,98,88,63,29.89,29.77,9,0,9,0.00
2013-9-1,88.7,76.1,68.7,79.4,72.7,68.0,100,90,69,29.82,29.68,10,0,10,0.16
2013-9-2,86.9,75.7,69.2,78.3,73.1,68.9,99,92,70,29.81,29.71,7,0,7,0.00
2013-9-3,88.7,77.3,70.7,77.8,73.3,70.3,99,89,62,29.85,29.72,7,0,7,0.00
2013-9-4,84.3,73.6,63.1,75.2,69.7,62.5,99,89,66,30.00,29.85,8,0,8,0.01
2013-9-5,86.4,72.7,63.2,71.0,66.1,59.0,99,83,43,30.02,29.94,9,0,9,0.00
2013-9-6,82.8,70.4,61.2,66.6,62.9,58.8,97,79,53,30.09,30.00,9,0,9,0.00
2013-9-7,82.8,68.0,56.0,71.2,62.7,55.2,98,85,56,30.06,29.89,6,0,6,0.00
2013-9-8,86.5,72.1,60.7,70.8,64.5,60.1,99,81,45,29.91,29.83,7,0,7,0.00
2013-9-9,88.0,74.0,62.9,73.1,67.8,62.3,98,83,54,30.07,29.90,9,0,9,0.00
2013-9-10,89.3,75.3,64.5,72.8,69.0,63.9,99,83,54,30.15,30.05,6,0,6,0.00
2013-9-11,90.0,74.2,64.1,75.4,69.2,63.5,98,86,56,30.12,29.99,6,0,6,0.00
2013-9-12,90.8,76.0,66.8,75.3,70.1,66.2,98,84,54,30.00,29.72,11,0,11,0.00
2013-9-13,83.8,74.2,66.3,69.9,65.3,54.4,98,76,52,29.81,29.67,11,0,11,0.00
2013-9-14,76.2,65.8,55.7,60.5,54.9,50.1,96,70,48,30.06,29.81,12,1,12,0.00
2013-9-15,80.4,64.7,51.6,65.8,58.5,50.7,97,83,52,30.16,30.03,5,0,5,0.00
2013-9-16,84.8,72.6,61.5,73.0,65.4,60.3,99,80,49,30.10,29.95,12,1,12,0.06
2013-9-17,76.7,66.9,58.2,61.2,56.5,53.1,90,71,45,30.23,30.10,13,1,13,0.00
2013-9-18,73.8,60.1,48.9,55.9,52.0,46.3,100,78,40,30.23,30.10,9,0,9,0.00
2013-9-19,77.3,63.5,51.2,65.9,58.5,50.1,99,85,60,30.12,30.00,6,0,6,0.00
2013-9-20,69.0,66.0,63.5,67.5,64.9,62.5,99,96,90,30.01,29.88,4,0,4,0.24
2013-9-21,77.8,69.5,64.2,72.9,68.0,63.8,99,95,80,29.89,29.64,7,0,7,0.93
2013-9-22,75.5,66.4,56.7,65.8,62.4,56.1,99,88,62,29.82,29.62,12,1,13,0.57
2013-9-23,71.5,60.1,52.0,61.3,55.3,51.2,98,85,59,30.00,29.82,9,0,9,0.00
2013-9-24,75.0,60.8,50.7,64.8,57.0,49.8,98,89,62,30.03,29.87,6,0,6,0.00
2013-9-25,71.0,61.1,50.6,64.6,58.6,50.1,99,92,69,29.89,29.79,5,0,5,0.00
2013-9-26,75.9,64.0,55.7,62.2,58.6,54.9,98,84,52,29.96,29.79,6,0,9,0.00
2013-9-27,73.3,60.3,50.4,61.6,56.1,49.8,100,87,62,30.11,29.95,12,1,12,0.00
2013-9-28,70.7,58.7,47.9,60.0,54.1,47.1,98,86,59,30.18,30.08,11,0,12,0.00
2013-9-29,72.2,59.1,50.2,60.0,54.2,49.3,98,86,56,30.10,29.96,9,0,9,0.00
2013-9-30,74.2,58.5,48.0,62.5,54.8,47.2,98,89,56,30.03,29.92,5,0,5,0.00
2013-10-1,79.5,62.3,49.5,68.2,58.0,48.7,98,87,55,30.05,29.94,5,0,5,0.00
2013-10-2,82.0,65.8,54.2,67.3,60.3,53.7,98,85,51,30.06,29.96,7,0,7,0.00
2013-10-3,82.5,67.2,56.2,72.1,62.6,55.4,98,87,54,30.05,29.97,7,0,7,0.00
2013-10-4,85.0,68.7,58.5,70.4,63.9,57.9,99,87,54,30.06,29.96,6,0,6,0.00
2013-10-5,86.5,70.1,59.0,71.7,65.0,58.4,99,86,54,30.04,29.94,5,0,5,0.00
2013-10-6,83.3,70.5,59.3,72.2,67.1,58.7,99,90,65,29.99,29.84,9,0,9,0.00
2013-10-7,72.4,69.8,63.8,71.9,69.1,60.3,99,98,88,29.91,29.77,5,0,9,1.28
2013-10-8,64.0,60.0,54.6,60.6,52.5,48.4,94,77,67,30.12,29.89,15,2,15,0.02
2013-10-9,64.3,58.5,54.8,57.9,54.4,51.1,96,86,79,30.10,30.01,13,1,13,0.16
2013-10-10,60.6,57.2,53.9,59.9,56.3,52.6,98,97,94,30.01,29.86,7,0,7,0.39
2013-10-11,68.9,63.1,59.7,64.7,61.0,58.1,98,93,80,29.89,29.83,6,0,6,0.00
2013-10-12,68.0,63.8,59.9,66.2,62.4,59.0,98,95,88,30.01,29.88,3,0,5,0.03
2013-10-13,67.5,64.3,62.0,64.9,62.6,60.8,97,94,90,30.12,30.00,7,0,7,0.01
2013-10-14,65.3,62.1,57.5,62.7,60.6,56.0,98,95,89,30.16,30.09,9,1,9,0.08
2013-10-15,71.8,61.8,52.7,64.2,58.4,51.6,98,89,70,30.12,29.98,10,0,10,0.00
2013-10-16,68.8,63.9,59.6,63.7,61.9,59.0,98,93,80,29.99,29.88,3,0,3,0.00
2013-10-17,73.3,65.5,58.6,67.3,63.0,58.0,99,92,76,29.89,29.76,7,0,7,0.00
2013-10-18,67.0,62.0,55.4,64.9,57.0,50.9,97,84,64,29.96,29.80,12,0,12,0.00
2013-10-19,69.4,62.3,58.3,65.3,60.3,57.2,98,93,85,29.90,29.74,6,0,6,0.01
2013-10-20,62.5,53.6,42.6,58.3,47.7,41.4,100,82,51,30.05,29.82,9,0,9,0.00
2013-10-21,66.3,50.7,37.4,55.3,46.3,36.1,98,86,56,30.10,29.94,5,0,5,0.00
2013-10-22,63.7,56.4,49.8,60.7,54.8,48.7,98,95,87,29.94,29.73,3,0,3,0.00
2013-10-23,66.7,57.9,47.2,58.3,48.3,35.7,99,73,39,29.94,29.61,14,1,14,0.00
2013-10-24,58.2,45.8,37.5,44.1,37.6,33.9,94,75,46,30.11,29.94,11,0,12,0.00
2013-10-25,55.1,45.6,36.2,41.2,35.8,31.0,93,71,42,30.31,30.11,12,1,12,0.00
2013-10-26,58.7,42.0,29.3,41.5,34.3,27.4,96,77,43,30.31,30.01,11,0,11,0.00
2013-10-27,67.7,51.3,39.3,52.2,43.6,37.1,96,78,46,30.06,29.97,11,0,11,0.00
2013-10-28,64.3,52.7,42.3,57.5,49.9,41.0,98,91,72,30.19,30.05,4,0,4,0.00
2013-10-29,70.2,56.7,47.9,60.6,53.3,46.8,98,89,68,30.26,30.17,6,0,6,0.00
2013-10-30,73.0,58.7,49.3,62.9,55.4,48.2,98,90,66,30.23,30.08,9,0,9,0.00
2013-10-31,73.9,62.1,52.8,63.6,58.0,52.0,98,87,64,30.12,29.84,11,0,11,0.00
2013-11-1,71.8,67.6,60.5,68.5,65.2,58.9,98,92,82,29.85,29.60,12,1,12,0.91
2013-11-2,69.6,60.4,49.6,58.9,53.6,44.7,98,80,43,29.86,29.62,9,1,14,0.00
2013-11-3,62.9,49.7,39.1,46.0,41.4,38.0,96,75,45,30.30,29.86,10,0,10,0.00
2013-11-4,55.0,43.5,35.2,40.8,36.3,33.6,96,78,46,30.48,30.29,13,1,13,0.00
2013-11-5,56.9,48.2,36.6,50.2,42.9,33.8,92,82,68,30.47,30.35,9,1,9,0.00
2013-11-6,70.2,54.7,42.7,58.7,50.5,41.4,97,87,62,30.36,30.03,5,0,5,0.00
2013-11-7,68.8,59.1,47.5,62.2,53.5,35.8,99,83,57,30.04,29.85,12,1,12,0.01
2013-11-8,56.7,44.1,31.3,36.8,32.9,28.9,100,68,35,30.26,30.03,12,1,12,0.00
2013-11-9,57.8,41.8,28.4,41.6,34.0,27.1,97,77,39,30.32,30.12,5,0,10,0.00
2013-11-10,71.7,50.8,35.3,44.5,38.3,31.5,96,68,30,30.17,29.99,14,1,14,0.00
2013-11-11,58.2,43.6,30.4,38.5,33.3,28.4,95,70,38,30.28,30.08,7,0,7,0.00
2013-11-12,61.0,41.4,31.6,42.4,35.2,27.9,96,81,46,30.36,29.98,10,1,16,0.01
2013-11-13,45.0,34.3,26.6,28.1,22.9,20.0,88,65,39,30.47,30.35,11,1,11,0.00
2013-11-14,57.4,46.4,21.2,32.1,28.1,19.5,94,52,30,30.42,30.27,7,1,7,0.00
2013-11-15,50.0,50.0,50.0,30.6,30.6,30.6,47,47,47,30.29,30.12,0,0,0,0.00
2013-11-16,67.7,55.1,49.2,59.2,44.0,30.6,98,69,47,30.20,30.11,5,0,5,0.00
2013-11-17,70.3,60.3,53.2,65.1,58.2,52.7,99,93,75,30.13,29.82,6,0,6,0.07
2013-11-18,75.3,65.5,52.8,67.3,55.3,33.5,99,73,39,29.89,29.71,12,1,12,0.02
2013-11-19,56.4,47.5,37.2,35.8,32.4,30.1,85,57,38,30.24,29.88,10,1,10,0.00
2013-11-20,53.7,43.8,37.3,38.7,33.8,29.3,88,68,52,30.37,30.24,12,1,12,0.00
2013-11-21,60.3,49.6,40.2,50.0,43.7,37.1,91,80,67,30.42,30.31,9,1,9,0.00
2013-11-22,71.3,58.3,45.2,62.0,54.3,44.0,97,87,72,30.33,30.01,11,0,11,0.02
2013-11-23,60.4,55.3,42.9,59.8,45.6,24.6,98,72,42,30.11,29.96,8,0,8,0.02
2013-11-24,42.9,33.2,22.0,26.0,14.4,6.3,80,47,27,30.49,30.10,9,2,13,0.00
2013-11-25,43.1,29.5,17.1,25.0,17.0,10.7,91,64,28,30.54,30.31,6,0,6,0.00
2013-11-26,63.7,44.5,35.9,63.3,37.3,18.8,100,78,45,30.32,29.51,13,1,13,1.15
2013-11-27,46.9,40.2,28.1,46.2,37.1,22.4,98,89,65,30.11,29.43,12,1,12,0.46
2013-11-28,43.7,30.6,20.8,29.9,22.9,18.2,94,75,45,30.43,30.11,9,0,9,0.00
2013-11-29,50.5,33.9,22.4,32.3,26.3,20.9,95,77,43,30.57,30.41,9,0,9,0.00
2013-11-30,48.4,34.8,25.8,35.8,29.1,24.1,95,81,60,30.58,30.31,9,1,9,0.00
2013-12-1,58.6,40.2,26.0,44.0,34.3,24.8,96,82,46,30.31,29.96,4,0,5,0.00
2013-12-2,59.9,44.7,36.4,47.3,40.8,35.4,97,87,60,29.95,29.75,4,0,4,0.00
2013-12-3,54.5,43.7,30.9,49.0,41.3,30.1,98,91,77,29.93,29.80,3,0,3,0.00
2013-12-4,64.3,55.0,49.1,58.7,52.9,47.5,98,93,82,30.02,29.91,5,0,5,0.00
2013-12-5,67.2,60.5,51.3,64.8,59.6,50.8,99,97,91,30.06,29.96,6,0,6,0.02
2013-12-6,77.7,68.9,63.3,66.6,64.2,61.7,97,86,67,30.00,29.89,17,1,17,0.01
2013-12-7,68.5,50.5,43.6,65.7,46.4,35.9,97,86,73,30.37,29.91,14,2,14,0.25
2013-12-8,43.6,36.8,34.1,36.5,33.3,31.4,96,88,68,30.40,30.22,10,1,10,0.07
2013-12-9,45.5,40.0,34.9,45.0,39.3,33.9,98,97,96,30.23,30.00,4,0,4,0.18
2013-12-10,48.7,43.6,28.1,46.2,41.2,26.9,98,92,62,30.26,29.84,11,0,11,0.45
2013-12-11,48.7,32.9,22.7,34.8,27.4,21.2,97,82,47,30.40,30.23,7,0,7,0.00
2013-12-12,44.1,32.6,24.2,28.0,24.3,19.7,96,75,39,30.36,30.21,10,1,10,0.00
2013-12-13,51.7,33.2,20.6,33.6,25.1,18.9,94,76,36,30.34,30.21,9,0,9,0.00
2013-12-14,46.9,40.5,34.4,43.6,38.4,31.6,97,93,63,30.25,29.71,11,0,11,0.85
2013-12-15,53.8,42.8,29.5,44.9,37.5,27.9,100,83,55,30.01,29.64,13,1,13,0.03
2013-12-16,55.2,37.1,26.4,41.3,32.2,25.2,96,84,51,30.12,30.01,6,0,6,0.00
2013-12-17,60.9,44.0,29.0,42.8,35.9,28.2,98,76,47,30.06,29.82,15,1,15,0.00
2013-12-18,50.2,40.2,27.5,34.0,25.0,20.6,89,57,32,30.24,29.96,11,1,11,0.00
2013-12-19,62.1,40.4,25.4,36.8,29.2,22.8,91,69,28,30.27,30.15,14,0,14,0.00
2013-12-20,65.9,49.4,37.3,55.7,44.2,31.9,96,83,63,30.18,30.05,12,0,12,0.00
2013-12-21,72.7,56.3,42.2,66.6,53.7,41.6,98,92,70,30.09,29.97,11,0,12,0.00
2013-12-22,77.3,70.1,63.2,68.8,65.8,62.3,99,87,69,30.02,29.94,15,1,15,0.17
2013-12-23,66.3,60.3,46.9,65.9,59.3,39.4,99,97,76,30.08,29.90,13,0,13,1.37
2013-12-24,47.4,41.4,29.6,39.7,30.1,17.6,79,65,48,30.39,30.05,14,1,14,0.00
2013-12-25,38.9,28.8,22.3,22.8,17.6,14.0,91,64,38,30.49,30.34,9,0,9,0.00
2013-12-26,52.7,35.3,23.2,35.1,29.3,20.9,94,81,40,30.35,30.18,6,0,6,0.02
2013-12-27,51.6,34.0,23.3,32.1,25.8,21.8,95,77,34,30.40,30.30,6,0,6,0.00
2013-12-28,57.2,39.1,22.8,40.7,31.1,21.3,95,76,36,30.35,30.09,4,0,4,0.00
2013-12-29,56.8,47.3,40.3,56.5,45.9,39.8,99,95,76,30.09,29.64,7,1,14,1.68
2013-12-30,53.7,43.1,33.2,46.8,40.2,32.7,99,90,68,30.07,29.85,4,0,4,0.00
2013-12-31,50.7,40.6,29.1,40.6,33.2,25.6,94,77,39,30.29,30.05,13,1,13,0.00
2014-1-1,49.8,36.8,28.8,35.2,30.4,27.1,96,80,43,30.36,30.09,6,0,6,0.00
2014-1-2,47.4,41.6,33.5,45.5,39.3,31.4,100,92,80,30.09,29.52,14,0,14,0.30